sensor_id;sensor_type;location;lat;lon;timestamp;P1;durP1;ratioP1;P2;durP2;ratioP2
45322;SDS011;31382;50.200;8.674;2024-02-26T00:00:59;1.67;;;0.20;;
45322;SDS011;31382;50.200;8.674;2024-02-26T00:06:00;0.90;;;0.30;;
45322;SDS011;31382;50.200;8.674;2024-02-26T00:11:04;0.38;;;0.20;;
45322;SDS011;31382;50.200;8.674;2024-02-26T00:16:10;2.08;;;0.40;;
45322;SDS011;31382;50.200;8.674;2024-02-26T00:21:12;0.47;;;0.30;;
45322;SDS011;31382;50.200;8.674;2024-02-26T00:26:13;0.45;;;0.22;;
45322;SDS011;31382;50.200;8.674;2024-02-26T00:31:19;1.38;;;0.30;;
45322;SDS011;31382;50.200;8.674;2024-02-26T00:36:20;1.25;;;0.40;;
45322;SDS011;31382;50.200;8.674;2024-02-26T00:41:22;0.93;;;0.30;;
45322;SDS011;31382;50.200;8.674;2024-02-26T00:46:24;0.80;;;0.20;;
45322;SDS011;31382;50.200;8.674;2024-02-26T00:51:26;1.38;;;0.40;;
45322;SDS011;31382;50.200;8.674;2024-02-26T00:56:28;0.47;;;0.20;;
45322;SDS011;31382;50.200;8.674;2024-02-26T01:01:29;0.57;;;0.30;;
45322;SDS011;31382;50.200;8.674;2024-02-26T01:06:31;1.05;;;0.30;;
45322;SDS011;31382;50.200;8.674;2024-02-26T01:11:33;0.50;;;0.20;;
45322;SDS011;31382;50.200;8.674;2024-02-26T01:16:35;0.93;;;0.30;;
45322;SDS011;31382;50.200;8.674;2024-02-26T01:21:36;0.75;;;0.30;;
45322;SDS011;31382;50.200;8.674;2024-02-26T01:26:38;0.40;;;0.38;;
45322;SDS011;31382;50.200;8.674;2024-02-26T01:31:40;1.45;;;1.30;;
45322;SDS011;31382;50.200;8.674;2024-02-26T01:36:42;3.00;;;0.30;;
45322;SDS011;31382;50.200;8.674;2024-02-26T01:41:45;1.45;;;0.30;;
45322;SDS011;31382;50.200;8.674;2024-02-26T01:46:47;2.58;;;0.50;;
45322;SDS011;31382;50.200;8.674;2024-02-26T01:51:49;2.15;;;0.50;;
45322;SDS011;31382;50.200;8.674;2024-02-26T01:56:51;0.68;;;0.30;;
45322;SDS011;31382;50.200;8.674;2024-02-26T02:01:55;0.77;;;0.50;;
45322;SDS011;31382;50.200;8.674;2024-02-26T02:06:59;1.15;;;0.50;;
45322;SDS011;31382;50.200;8.674;2024-02-26T02:12:02;1.35;;;0.52;;
45322;SDS011;31382;50.200;8.674;2024-02-26T02:17:03;0.80;;;0.50;;
45322;SDS011;31382;50.200;8.674;2024-02-26T02:22:05;4.30;;;0.50;;
45322;SDS011;31382;50.200;8.674;2024-02-26T02:27:07;1.55;;;0.40;;
45322;SDS011;31382;50.200;8.674;2024-02-26T02:32:09;2.55;;;0.88;;
45322;SDS011;31382;50.200;8.674;2024-02-26T02:37:10;0.93;;;0.47;;
45322;SDS011;31382;50.200;8.674;2024-02-26T02:42:12;1.25;;;0.63;;
45322;SDS011;31382;50.200;8.674;2024-02-26T02:47:14;2.63;;;0.70;;
45322;SDS011;31382;50.200;8.674;2024-02-26T02:52:15;1.38;;;0.65;;
45322;SDS011;31382;50.200;8.674;2024-02-26T02:57:17;0.75;;;0.45;;
45322;SDS011;31382;50.200;8.674;2024-02-26T03:02:19;1.10;;;0.52;;
45322;SDS011;31382;50.200;8.674;2024-02-26T03:07:20;2.05;;;0.50;;
45322;SDS011;31382;50.200;8.674;2024-02-26T03:12:22;1.13;;;0.60;;
45322;SDS011;31382;50.200;8.674;2024-02-26T03:17:24;1.38;;;0.60;;
45322;SDS011;31382;50.200;8.674;2024-02-26T03:22:26;2.90;;;0.70;;
45322;SDS011;31382;50.200;8.674;2024-02-26T03:27:28;0.70;;;0.45;;
45322;SDS011;31382;50.200;8.674;2024-02-26T03:32:29;2.35;;;0.50;;
45322;SDS011;31382;50.200;8.674;2024-02-26T03:37:31;1.48;;;0.75;;
45322;SDS011;31382;50.200;8.674;2024-02-26T03:42:33;0.93;;;0.60;;
45322;SDS011;31382;50.200;8.674;2024-02-26T03:47:35;1.55;;;0.68;;
45322;SDS011;31382;50.200;8.674;2024-02-26T03:52:36;1.48;;;0.60;;
45322;SDS011;31382;50.200;8.674;2024-02-26T03:57:38;2.78;;;0.88;;
45322;SDS011;31382;50.200;8.674;2024-02-26T04:02:39;2.75;;;0.63;;
45322;SDS011;31382;50.200;8.674;2024-02-26T04:07:41;2.53;;;1.20;;
45322;SDS011;31382;50.200;8.674;2024-02-26T04:12:42;2.72;;;1.05;;
45322;SDS011;31382;50.200;8.674;2024-02-26T04:17:45;3.72;;;1.75;;
45322;SDS011;31382;50.200;8.674;2024-02-26T04:22:47;6.38;;;1.70;;
45322;SDS011;31382;50.200;8.674;2024-02-26T04:27:49;3.67;;;1.10;;
45322;SDS011;31382;50.200;8.674;2024-02-26T04:32:50;2.35;;;0.90;;
45322;SDS011;31382;50.200;8.674;2024-02-26T04:37:52;4.05;;;0.90;;
45322;SDS011;31382;50.200;8.674;2024-02-26T04:42:53;3.67;;;1.13;;
45322;SDS011;31382;50.200;8.674;2024-02-26T04:47:55;2.78;;;0.90;;
45322;SDS011;31382;50.200;8.674;2024-02-26T04:52:57;2.30;;;0.98;;
45322;SDS011;31382;50.200;8.674;2024-02-26T04:57:59;3.67;;;1.10;;
45322;SDS011;31382;50.200;8.674;2024-02-26T05:03:01;8.93;;;2.38;;
45322;SDS011;31382;50.200;8.674;2024-02-26T05:08:03;2.00;;;0.90;;
45322;SDS011;31382;50.200;8.674;2024-02-26T05:13:05;1.58;;;0.98;;
45322;SDS011;31382;50.200;8.674;2024-02-26T05:18:07;1.65;;;0.80;;
45322;SDS011;31382;50.200;8.674;2024-02-26T05:23:09;1.00;;;0.63;;
45322;SDS011;31382;50.200;8.674;2024-02-26T05:28:11;3.70;;;1.17;;
45322;SDS011;31382;50.200;8.674;2024-02-26T05:33:12;2.70;;;1.35;;
45322;SDS011;31382;50.200;8.674;2024-02-26T05:38:18;4.20;;;2.08;;
45322;SDS011;31382;50.200;8.674;2024-02-26T05:43:20;2.75;;;1.05;;
45322;SDS011;31382;50.200;8.674;2024-02-26T05:48:22;1.58;;;0.75;;
45322;SDS011;31382;50.200;8.674;2024-02-26T05:53:23;3.15;;;1.90;;
45322;SDS011;31382;50.200;8.674;2024-02-26T05:58:26;6.03;;;1.98;;
45322;SDS011;31382;50.200;8.674;2024-02-26T06:03:29;3.45;;;1.80;;
45322;SDS011;31382;50.200;8.674;2024-02-26T06:08:31;3.10;;;1.88;;
45322;SDS011;31382;50.200;8.674;2024-02-26T06:13:37;2.08;;;1.25;;
45322;SDS011;31382;50.200;8.674;2024-02-26T06:18:38;3.03;;;1.30;;
45322;SDS011;31382;50.200;8.674;2024-02-26T06:23:40;3.33;;;1.20;;
45322;SDS011;31382;50.200;8.674;2024-02-26T06:28:42;3.15;;;1.42;;
45322;SDS011;31382;50.200;8.674;2024-02-26T06:33:43;2.55;;;1.45;;
45322;SDS011;31382;50.200;8.674;2024-02-26T06:38:45;3.88;;;1.38;;
45322;SDS011;31382;50.200;8.674;2024-02-26T06:43:46;4.18;;;1.50;;
45322;SDS011;31382;50.200;8.674;2024-02-26T06:48:48;7.50;;;2.42;;
45322;SDS011;31382;50.200;8.674;2024-02-26T06:53:55;2.10;;;1.38;;
45322;SDS011;31382;50.200;8.674;2024-02-26T06:58:56;4.35;;;1.23;;
45322;SDS011;31382;50.200;8.674;2024-02-26T07:03:57;4.00;;;1.65;;
45322;SDS011;31382;50.200;8.674;2024-02-26T07:08:59;3.00;;;1.45;;
45322;SDS011;31382;50.200;8.674;2024-02-26T07:14:00;2.80;;;1.60;;
45322;SDS011;31382;50.200;8.674;2024-02-26T07:19:02;4.13;;;2.05;;
45322;SDS011;31382;50.200;8.674;2024-02-26T07:24:04;1.70;;;1.20;;
45322;SDS011;31382;50.200;8.674;2024-02-26T07:29:06;3.85;;;1.10;;
45322;SDS011;31382;50.200;8.674;2024-02-26T07:34:07;3.55;;;1.30;;
45322;SDS011;31382;50.200;8.674;2024-02-26T07:39:10;3.58;;;1.52;;
45322;SDS011;31382;50.200;8.674;2024-02-26T07:44:12;2.40;;;1.10;;
45322;SDS011;31382;50.200;8.674;2024-02-26T07:55:29;4.57;;;1.55;;
45322;SDS011;31382;50.200;8.674;2024-02-26T08:00:30;3.03;;;1.42;;
45322;SDS011;31382;50.200;8.674;2024-02-26T08:05:32;5.22;;;2.20;;
45322;SDS011;31382;50.200;8.674;2024-02-26T08:10:33;3.63;;;1.20;;
45322;SDS011;31382;50.200;8.674;2024-02-26T08:15:35;3.47;;;1.33;;
45322;SDS011;31382;50.200;8.674;2024-02-26T08:20:38;6.13;;;1.73;;
45322;SDS011;31382;50.200;8.674;2024-02-26T08:25:40;2.47;;;1.73;;
45322;SDS011;31382;50.200;8.674;2024-02-26T08:30:41;3.30;;;1.90;;
45322;SDS011;31382;50.200;8.674;2024-02-26T08:35:42;3.28;;;1.63;;
45322;SDS011;31382;50.200;8.674;2024-02-26T08:40:44;6.22;;;2.05;;
45322;SDS011;31382;50.200;8.674;2024-02-26T08:45:45;5.30;;;1.48;;
45322;SDS011;31382;50.200;8.674;2024-02-26T08:50:47;3.20;;;1.40;;
45322;SDS011;31382;50.200;8.674;2024-02-26T08:55:48;7.13;;;1.92;;
45322;SDS011;31382;50.200;8.674;2024-02-26T09:00:50;4.82;;;1.98;;
45322;SDS011;31382;50.200;8.674;2024-02-26T09:05:51;6.55;;;1.95;;
45322;SDS011;31382;50.200;8.674;2024-02-26T09:10:53;3.90;;;1.90;;
45322;SDS011;31382;50.200;8.674;2024-02-26T09:15:54;7.03;;;3.00;;
45322;SDS011;31382;50.200;8.674;2024-02-26T09:20:56;6.22;;;2.55;;
45322;SDS011;31382;50.200;8.674;2024-02-26T09:25:57;3.78;;;1.90;;
45322;SDS011;31382;50.200;8.674;2024-02-26T09:30:59;6.07;;;1.98;;
45322;SDS011;31382;50.200;8.674;2024-02-26T09:36:01;5.13;;;1.92;;
45322;SDS011;31382;50.200;8.674;2024-02-26T09:41:06;4.53;;;2.50;;
45322;SDS011;31382;50.200;8.674;2024-02-26T09:46:07;3.83;;;2.10;;
45322;SDS011;31382;50.200;8.674;2024-02-26T09:51:09;7.90;;;2.58;;
45322;SDS011;31382;50.200;8.674;2024-02-26T09:56:12;5.13;;;2.25;;
45322;SDS011;31382;50.200;8.674;2024-02-26T10:01:16;6.05;;;2.55;;
45322;SDS011;31382;50.200;8.674;2024-02-26T10:06:19;4.82;;;1.92;;
45322;SDS011;31382;50.200;8.674;2024-02-26T10:11:20;3.90;;;1.75;;
45322;SDS011;31382;50.200;8.674;2024-02-26T10:16:27;5.38;;;2.10;;
45322;SDS011;31382;50.200;8.674;2024-02-26T10:21:29;3.30;;;2.08;;
45322;SDS011;31382;50.200;8.674;2024-02-26T10:26:31;3.22;;;1.65;;
45322;SDS011;31382;50.200;8.674;2024-02-26T10:31:32;5.95;;;1.88;;
45322;SDS011;31382;50.200;8.674;2024-02-26T10:36:34;4.03;;;1.75;;
45322;SDS011;31382;50.200;8.674;2024-02-26T10:41:49;3.90;;;1.95;;
45322;SDS011;31382;50.200;8.674;2024-02-26T10:46:51;4.05;;;2.17;;
45322;SDS011;31382;50.200;8.674;2024-02-26T10:51:56;4.22;;;1.88;;
45322;SDS011;31382;50.200;8.674;2024-02-26T10:57:01;3.15;;;1.40;;
45322;SDS011;31382;50.200;8.674;2024-02-26T11:02:03;8.50;;;3.10;;
45322;SDS011;31382;50.200;8.674;2024-02-26T11:07:05;3.47;;;1.80;;
45322;SDS011;31382;50.200;8.674;2024-02-26T11:12:11;6.18;;;2.03;;
45322;SDS011;31382;50.200;8.674;2024-02-26T11:17:14;3.97;;;1.92;;
45322;SDS011;31382;50.200;8.674;2024-02-26T11:22:17;5.47;;;2.28;;
45322;SDS011;31382;50.200;8.674;2024-02-26T11:27:30;4.10;;;2.20;;
45322;SDS011;31382;50.200;8.674;2024-02-26T11:32:34;4.15;;;2.28;;
45322;SDS011;31382;50.200;8.674;2024-02-26T11:37:36;3.95;;;2.30;;
45322;SDS011;31382;50.200;8.674;2024-02-26T11:42:43;3.47;;;1.88;;
45322;SDS011;31382;50.200;8.674;2024-02-26T11:47:55;5.82;;;2.20;;
45322;SDS011;31382;50.200;8.674;2024-02-26T11:58:38;2.45;;;1.73;;
45322;SDS011;31382;50.200;8.674;2024-02-26T12:03:40;3.05;;;1.55;;
45322;SDS011;31382;50.200;8.674;2024-02-26T12:08:42;3.88;;;1.65;;
45322;SDS011;31382;50.200;8.674;2024-02-26T12:13:46;2.95;;;1.42;;
45322;SDS011;31382;50.200;8.674;2024-02-26T12:18:50;3.90;;;1.98;;
45322;SDS011;31382;50.200;8.674;2024-02-26T12:23:52;3.58;;;1.55;;
45322;SDS011;31382;50.200;8.674;2024-02-26T12:28:55;4.30;;;2.22;;
45322;SDS011;31382;50.200;8.674;2024-02-26T12:33:56;3.20;;;1.45;;
45322;SDS011;31382;50.200;8.674;2024-02-26T12:38:58;3.20;;;1.58;;
45322;SDS011;31382;50.200;8.674;2024-02-26T12:44:00;5.18;;;1.60;;
45322;SDS011;31382;50.200;8.674;2024-02-26T12:49:02;3.83;;;1.35;;
45322;SDS011;31382;50.200;8.674;2024-02-26T12:54:03;2.88;;;1.55;;
45322;SDS011;31382;50.200;8.674;2024-02-26T12:59:05;3.03;;;1.40;;
45322;SDS011;31382;50.200;8.674;2024-02-26T13:04:07;3.75;;;1.40;;
45322;SDS011;31382;50.200;8.674;2024-02-26T13:09:12;2.10;;;1.10;;
45322;SDS011;31382;50.200;8.674;2024-02-26T13:14:20;3.00;;;1.40;;
45322;SDS011;31382;50.200;8.674;2024-02-26T13:19:22;3.20;;;1.17;;
45322;SDS011;31382;50.200;8.674;2024-02-26T13:24:24;3.30;;;1.60;;
45322;SDS011;31382;50.200;8.674;2024-02-26T13:29:26;1.95;;;1.50;;
45322;SDS011;31382;50.200;8.674;2024-02-26T13:34:28;3.42;;;1.27;;
45322;SDS011;31382;50.200;8.674;2024-02-26T13:39:32;2.70;;;1.38;;
45322;SDS011;31382;50.200;8.674;2024-02-26T13:44:33;1.73;;;1.02;;
45322;SDS011;31382;50.200;8.674;2024-02-26T13:49:37;3.78;;;1.10;;
45322;SDS011;31382;50.200;8.674;2024-02-26T13:54:39;1.88;;;1.15;;
45322;SDS011;31382;50.200;8.674;2024-02-26T13:59:41;4.32;;;1.27;;
45322;SDS011;31382;50.200;8.674;2024-02-26T14:04:43;2.15;;;1.42;;
45322;SDS011;31382;50.200;8.674;2024-02-26T14:09:45;4.80;;;1.00;;
45322;SDS011;31382;50.200;8.674;2024-02-26T14:14:51;4.20;;;1.25;;
45322;SDS011;31382;50.200;8.674;2024-02-26T14:19:55;3.67;;;1.25;;
45322;SDS011;31382;50.200;8.674;2024-02-26T14:24:57;1.75;;;1.02;;
45322;SDS011;31382;50.200;8.674;2024-02-26T14:29:59;1.42;;;0.82;;
45322;SDS011;31382;50.200;8.674;2024-02-26T14:35:00;2.95;;;0.90;;
45322;SDS011;31382;50.200;8.674;2024-02-26T14:40:02;4.40;;;0.90;;
45322;SDS011;31382;50.200;8.674;2024-02-26T14:45:04;2.22;;;0.93;;
45322;SDS011;31382;50.200;8.674;2024-02-26T14:50:08;2.55;;;1.27;;
45322;SDS011;31382;50.200;8.674;2024-02-26T14:55:10;2.10;;;1.05;;
45322;SDS011;31382;50.200;8.674;2024-02-26T15:00:11;2.40;;;0.98;;
45322;SDS011;31382;50.200;8.674;2024-02-26T15:05:13;2.75;;;0.93;;
45322;SDS011;31382;50.200;8.674;2024-02-26T15:10:15;2.13;;;0.75;;
45322;SDS011;31382;50.200;8.674;2024-02-26T15:15:17;2.67;;;1.42;;
45322;SDS011;31382;50.200;8.674;2024-02-26T15:20:18;1.63;;;0.95;;
45322;SDS011;31382;50.200;8.674;2024-02-26T15:25:20;1.58;;;0.85;;
45322;SDS011;31382;50.200;8.674;2024-02-26T15:30:21;1.63;;;0.65;;
45322;SDS011;31382;50.200;8.674;2024-02-26T15:35:23;3.72;;;1.10;;
45322;SDS011;31382;50.200;8.674;2024-02-26T15:40:24;1.83;;;1.13;;
45322;SDS011;31382;50.200;8.674;2024-02-26T15:45:26;2.15;;;0.77;;
45322;SDS011;31382;50.200;8.674;2024-02-26T15:55:34;2.10;;;0.60;;
45322;SDS011;31382;50.200;8.674;2024-02-26T16:00:38;1.50;;;0.60;;
45322;SDS011;31382;50.200;8.674;2024-02-26T16:05:43;2.58;;;1.20;;
45322;SDS011;31382;50.200;8.674;2024-02-26T16:10:45;3.58;;;1.23;;
45322;SDS011;31382;50.200;8.674;2024-02-26T16:15:50;2.80;;;1.20;;
45322;SDS011;31382;50.200;8.674;2024-02-26T16:20:59;1.40;;;0.88;;
45322;SDS011;31382;50.200;8.674;2024-02-26T16:26:00;5.13;;;1.10;;
45322;SDS011;31382;50.200;8.674;2024-02-26T16:31:02;2.30;;;1.45;;
45322;SDS011;31382;50.200;8.674;2024-02-26T16:36:03;3.00;;;1.27;;
45322;SDS011;31382;50.200;8.674;2024-02-26T16:41:05;2.15;;;1.20;;
45322;SDS011;31382;50.200;8.674;2024-02-26T16:46:06;4.10;;;1.45;;
45322;SDS011;31382;50.200;8.674;2024-02-26T16:51:08;5.05;;;1.55;;
45322;SDS011;31382;50.200;8.674;2024-02-26T16:56:10;2.95;;;1.50;;
45322;SDS011;31382;50.200;8.674;2024-02-26T17:01:12;4.00;;;1.63;;
45322;SDS011;31382;50.200;8.674;2024-02-26T17:06:13;3.05;;;1.73;;
45322;SDS011;31382;50.200;8.674;2024-02-26T17:11:16;5.18;;;1.52;;
45322;SDS011;31382;50.200;8.674;2024-02-26T17:16:18;3.10;;;1.60;;
45322;SDS011;31382;50.200;8.674;2024-02-26T17:21:20;2.58;;;1.40;;
45322;SDS011;31382;50.200;8.674;2024-02-26T17:26:23;3.15;;;1.48;;
45322;SDS011;31382;50.200;8.674;2024-02-26T17:31:25;1.52;;;0.90;;
45322;SDS011;31382;50.200;8.674;2024-02-26T17:36:26;5.43;;;1.95;;
45322;SDS011;31382;50.200;8.674;2024-02-26T17:41:28;5.63;;;3.40;;
45322;SDS011;31382;50.200;8.674;2024-02-26T17:46:29;7.18;;;2.13;;
45322;SDS011;31382;50.200;8.674;2024-02-26T17:51:31;4.88;;;1.50;;
45322;SDS011;31382;50.200;8.674;2024-02-26T17:56:32;3.85;;;0.95;;
45322;SDS011;31382;50.200;8.674;2024-02-26T18:01:34;3.90;;;1.40;;
45322;SDS011;31382;50.200;8.674;2024-02-26T18:06:36;5.28;;;0.93;;
45322;SDS011;31382;50.200;8.674;2024-02-26T18:11:38;2.85;;;0.82;;
45322;SDS011;31382;50.200;8.674;2024-02-26T18:16:39;2.05;;;0.80;;
45322;SDS011;31382;50.200;8.674;2024-02-26T18:21:41;2.85;;;1.52;;
45322;SDS011;31382;50.200;8.674;2024-02-26T18:26:42;3.72;;;1.10;;
45322;SDS011;31382;50.200;8.674;2024-02-26T18:31:44;2.35;;;1.40;;
45322;SDS011;31382;50.200;8.674;2024-02-26T18:36:46;3.50;;;1.52;;
45322;SDS011;31382;50.200;8.674;2024-02-26T18:41:48;7.10;;;2.22;;
45322;SDS011;31382;50.200;8.674;2024-02-26T18:46:49;6.07;;;2.30;;
45322;SDS011;31382;50.200;8.674;2024-02-26T18:51:51;6.03;;;2.40;;
45322;SDS011;31382;50.200;8.674;2024-02-26T18:56:52;4.70;;;2.38;;
45322;SDS011;31382;50.200;8.674;2024-02-26T19:01:54;5.32;;;2.85;;
45322;SDS011;31382;50.200;8.674;2024-02-26T19:06:55;7.53;;;3.13;;
45322;SDS011;31382;50.200;8.674;2024-02-26T19:11:57;8.05;;;3.42;;
45322;SDS011;31382;50.200;8.674;2024-02-26T19:16:58;6.82;;;3.10;;
45322;SDS011;31382;50.200;8.674;2024-02-26T19:22:00;5.88;;;2.80;;
45322;SDS011;31382;50.200;8.674;2024-02-26T19:27:02;5.80;;;2.85;;
45322;SDS011;31382;50.200;8.674;2024-02-26T19:32:03;7.07;;;3.33;;
45322;SDS011;31382;50.200;8.674;2024-02-26T19:37:06;4.53;;;2.88;;
45322;SDS011;31382;50.200;8.674;2024-02-26T19:42:07;7.25;;;3.28;;
45322;SDS011;31382;50.200;8.674;2024-02-26T19:47:08;6.93;;;3.38;;
45322;SDS011;31382;50.200;8.674;2024-02-26T19:52:10;7.20;;;4.45;;
45322;SDS011;31382;50.200;8.674;2024-02-26T19:57:12;9.32;;;4.50;;
45322;SDS011;31382;50.200;8.674;2024-02-26T20:02:14;9.52;;;4.65;;
45322;SDS011;31382;50.200;8.674;2024-02-26T20:07:15;9.98;;;4.40;;
45322;SDS011;31382;50.200;8.674;2024-02-26T20:12:18;12.65;;;5.68;;
45322;SDS011;31382;50.200;8.674;2024-02-26T20:17:19;9.25;;;4.85;;
45322;SDS011;31382;50.200;8.674;2024-02-26T20:22:21;8.93;;;5.13;;
45322;SDS011;31382;50.200;8.674;2024-02-26T20:27:23;10.40;;;5.60;;
45322;SDS011;31382;50.200;8.674;2024-02-26T20:32:24;13.43;;;6.15;;
45322;SDS011;31382;50.200;8.674;2024-02-26T20:37:28;11.50;;;6.18;;
45322;SDS011;31382;50.200;8.674;2024-02-26T20:42:29;10.70;;;6.72;;
45322;SDS011;31382;50.200;8.674;2024-02-26T20:47:31;12.98;;;7.30;;
45322;SDS011;31382;50.200;8.674;2024-02-26T20:52:33;14.63;;;7.40;;
45322;SDS011;31382;50.200;8.674;2024-02-26T20:57:35;14.13;;;8.30;;
45322;SDS011;31382;50.200;8.674;2024-02-26T21:02:37;13.57;;;7.03;;
45322;SDS011;31382;50.200;8.674;2024-02-26T21:07:41;20.05;;;9.40;;
45322;SDS011;31382;50.200;8.674;2024-02-26T21:12:48;17.80;;;8.30;;
45322;SDS011;31382;50.200;8.674;2024-02-26T21:17:50;13.48;;;7.80;;
45322;SDS011;31382;50.200;8.674;2024-02-26T21:22:51;16.67;;;9.45;;
45322;SDS011;31382;50.200;8.674;2024-02-26T21:27:53;17.45;;;9.10;;
45322;SDS011;31382;50.200;8.674;2024-02-26T21:32:55;14.35;;;8.77;;
45322;SDS011;31382;50.200;8.674;2024-02-26T21:37:56;13.88;;;8.25;;
45322;SDS011;31382;50.200;8.674;2024-02-26T21:42:58;17.10;;;9.68;;
45322;SDS011;31382;50.200;8.674;2024-02-26T21:47:59;15.02;;;9.25;;
45322;SDS011;31382;50.200;8.674;2024-02-26T21:53:01;18.50;;;9.80;;
45322;SDS011;31382;50.200;8.674;2024-02-26T21:58:02;22.50;;;11.07;;
45322;SDS011;31382;50.200;8.674;2024-02-26T22:03:04;20.45;;;10.77;;
45322;SDS011;31382;50.200;8.674;2024-02-26T22:08:06;20.88;;;10.90;;
45322;SDS011;31382;50.200;8.674;2024-02-26T22:13:07;22.45;;;12.48;;
45322;SDS011;31382;50.200;8.674;2024-02-26T22:18:09;22.50;;;11.93;;
45322;SDS011;31382;50.200;8.674;2024-02-26T22:23:11;23.83;;;12.48;;
45322;SDS011;31382;50.200;8.674;2024-02-26T22:28:12;24.55;;;13.60;;
45322;SDS011;31382;50.200;8.674;2024-02-26T22:33:14;24.20;;;12.45;;
45322;SDS011;31382;50.200;8.674;2024-02-26T22:38:15;23.20;;;13.68;;
45322;SDS011;31382;50.200;8.674;2024-02-26T22:43:18;25.08;;;14.15;;
45322;SDS011;31382;50.200;8.674;2024-02-26T22:48:19;27.67;;;14.00;;
45322;SDS011;31382;50.200;8.674;2024-02-26T22:53:24;28.73;;;13.77;;
45322;SDS011;31382;50.200;8.674;2024-02-26T22:58:25;27.25;;;14.95;;
45322;SDS011;31382;50.200;8.674;2024-02-26T23:03:28;30.27;;;15.48;;
45322;SDS011;31382;50.200;8.674;2024-02-26T23:08:29;27.15;;;14.27;;
45322;SDS011;31382;50.200;8.674;2024-02-26T23:13:31;27.58;;;14.15;;
45322;SDS011;31382;50.200;8.674;2024-02-26T23:18:32;29.80;;;15.57;;
45322;SDS011;31382;50.200;8.674;2024-02-26T23:23:34;29.08;;;14.45;;
45322;SDS011;31382;50.200;8.674;2024-02-26T23:28:36;27.60;;;14.63;;
45322;SDS011;31382;50.200;8.674;2024-02-26T23:33:37;26.92;;;13.55;;
45322;SDS011;31382;50.200;8.674;2024-02-26T23:38:39;26.85;;;14.90;;
45322;SDS011;31382;50.200;8.674;2024-02-26T23:43:40;24.98;;;13.77;;
45322;SDS011;31382;50.200;8.674;2024-02-26T23:48:42;23.88;;;13.68;;
45322;SDS011;31382;50.200;8.674;2024-02-26T23:53:45;25.60;;;13.05;;
45322;SDS011;31382;50.200;8.674;2024-02-26T23:58:47;25.98;;;14.80;;
